Time,TemperatureF,DewpointF,PressureIn,WindDirection,WindDirectionDegrees,WindSpeedMPH,WindSpeedGustMPH,Humidity,HourlyPrecipIn,Conditions,Clouds,dailyrainin,SoftwareType,DateUTC
2013-02-06 00:01:00,32.9,30.8,30.10,SSW,211,0.0,0.0,92,0.00,,,0.00,Wunderground v.1.15,2013-02-06 06:01:00,
2013-02-06 00:06:00,32.7,30.6,30.10,SSW,211,0.0,0.0,92,0.00,,,0.00,Wunderground v.1.15,2013-02-06 06:06:00,
2013-02-06 00:11:00,32.5,30.4,30.11,SSW,211,0.0,0.0,92,0.00,,,0.00,Wunderground v.1.15,2013-02-06 06:11:00,
2013-02-06 00:16:00,32.4,30.6,30.11,SSW,211,0.0,0.0,93,0.00,,,0.00,Wunderground v.1.15,2013-02-06 06:16:00,
2013-02-06 00:21:00,32.3,30.5,30.11,SSW,211,0.0,0.0,93,0.00,,,0.00,Wunderground v.1.15,2013-02-06 06:21:00,
2013-02-06 00:26:00,32.2,30.4,30.11,SSW,211,0.0,0.0,93,0.00,,,0.00,Wunderground v.1.15,2013-02-06 06:26:00,
2013-02-06 00:31:00,32.1,30.3,30.11,SSW,211,0.0,0.0,93,0.00,,,0.00,Wunderground v.1.15,2013-02-06 06:31:00,
2013-02-06 00:36:00,32.0,30.2,30.11,SSW,210,0.0,0.0,93,0.00,,,0.00,Wunderground v.1.15,2013-02-06 06:36:00,
2013-02-06 00:42:00,31.8,30.3,30.11,SSW,211,0.0,0.0,94,0.00,,,0.00,Wunderground v.1.15,2013-02-06 06:42:00,
2013-02-06 00:47:00,31.7,30.2,30.11,SSW,211,0.0,0.0,94,0.00,,,0.00,Wunderground v.1.15,2013-02-06 06:47:00,
2013-02-06 00:52:00,31.5,30.0,30.11,SSW,211,0.0,0.0,94,0.00,,,0.00,Wunderground v.1.15,2013-02-06 06:52:00,
2013-02-06 00:57:00,31.6,30.1,30.11,SSW,211,0.0,0.0,94,0.00,,,0.00,Wunderground v.1.15,2013-02-06 06:57:00,
2013-02-06 01:02:00,31.5,30.0,30.11,SSW,210,0.0,0.0,94,0.00,,,0.00,Wunderground v.1.15,2013-02-06 07:02:00,
2013-02-06 01:07:00,31.2,29.7,30.11,SSW,210,0.0,0.0,94,0.00,,,0.00,Wunderground v.1.15,2013-02-06 07:07:00,
2013-02-06 01:12:00,30.9,29.4,30.11,SSW,211,0.0,0.0,94,0.00,,,0.00,Wunderground v.1.15,2013-02-06 07:12:00,
2013-02-06 01:17:00,31.0,29.5,30.11,SSW,211,0.0,0.0,94,0.00,,,0.00,Wunderground v.1.15,2013-02-06 07:17:00,
2013-02-06 01:22:00,31.0,29.5,30.11,SSW,211,0.0,0.0,94,0.00,,,0.00,Wunderground v.1.15,2013-02-06 07:22:00,
2013-02-06 01:28:00,30.9,29.4,30.11,SSW,211,0.0,0.0,94,0.00,,,0.00,Wunderground v.1.15,2013-02-06 07:28:00,
2013-02-06 01:33:00,30.8,29.3,30.11,SSW,210,0.0,0.0,94,0.00,,,0.00,Wunderground v.1.15,2013-02-06 07:33:00,
2013-02-06 01:38:00,30.5,29.0,30.11,SSW,211,0.0,0.0,94,0.00,,,0.00,Wunderground v.1.15,2013-02-06 07:38:00,
2013-02-06 01:43:00,30.2,28.7,30.11,SSW,211,0.0,0.0,94,0.00,,,0.00,Wunderground v.1.15,2013-02-06 07:43:00,
2013-02-06 01:48:00,30.2,28.9,30.12,SSW,211,0.0,0.0,95,0.00,,,0.00,Wunderground v.1.15,2013-02-06 07:48:00,
2013-02-06 01:54:00,30.2,28.9,30.12,SSW,211,0.0,0.0,95,0.00,,,0.00,Wunderground v.1.15,2013-02-06 07:54:00,
2013-02-06 01:59:00,30.3,29.0,30.12,SSW,211,0.0,0.0,95,0.00,,,0.00,Wunderground v.1.15,2013-02-06 07:59:00,
2013-02-06 02:04:00,30.1,28.8,30.12,SSW,211,0.0,0.0,95,0.00,,,0.00,Wunderground v.1.15,2013-02-06 08:04:00,
2013-02-06 02:09:00,30.0,28.7,30.12,SW,222,0.0,0.0,95,0.00,,,0.00,Wunderground v.1.15,2013-02-06 08:09:00,
2013-02-06 02:14:00,30.0,28.7,30.12,SW,221,0.0,0.0,95,0.00,,,0.00,Wunderground v.1.15,2013-02-06 08:14:00,
2013-02-06 02:19:00,30.0,28.7,30.13,SW,221,0.0,0.0,95,0.00,,,0.00,Wunderground v.1.15,2013-02-06 08:19:00,
2013-02-06 02:24:00,30.0,28.7,30.12,SW,221,0.0,0.0,95,0.00,,,0.00,Wunderground v.1.15,2013-02-06 08:24:00,
2013-02-06 02:29:00,30.0,28.7,30.12,SW,221,0.0,0.0,95,0.00,,,0.00,Wunderground v.1.15,2013-02-06 08:29:00,
2013-02-06 02:34:00,30.1,28.8,30.12,SW,220,0.0,0.0,95,0.00,,,0.00,Wunderground v.1.15,2013-02-06 08:34:00,
2013-02-06 02:39:00,30.1,28.8,30.12,SSW,210,0.0,0.0,95,0.00,,,0.00,Wunderground v.1.15,2013-02-06 08:39:00,
2013-02-06 02:44:00,30.1,28.8,30.12,SSW,209,0.0,0.0,95,0.00,,,0.00,Wunderground v.1.15,2013-02-06 08:44:00,
2013-02-06 02:49:00,30.0,28.7,30.12,SSW,210,0.0,0.0,95,0.00,,,0.00,Wunderground v.1.15,2013-02-06 08:49:00,
2013-02-06 02:54:00,29.9,28.6,30.12,SSW,210,0.0,0.0,95,0.00,,,0.00,Wunderground v.1.15,2013-02-06 08:54:00,
2013-02-06 02:59:00,29.8,28.5,30.12,SSW,209,0.0,0.0,95,0.00,,,0.00,Wunderground v.1.15,2013-02-06 08:59:00,
2013-02-06 03:04:00,29.8,28.5,30.12,SSW,210,0.0,0.0,95,0.00,,,0.00,Wunderground v.1.15,2013-02-06 09:04:00,
2013-02-06 03:09:00,29.9,28.6,30.12,SSW,210,0.0,0.0,95,0.00,,,0.00,Wunderground v.1.15,2013-02-06 09:09:00,
2013-02-06 03:14:00,29.8,28.5,30.12,SSW,210,0.0,0.0,95,0.00,,,0.00,Wunderground v.1.15,2013-02-06 09:14:00,
2013-02-06 03:19:00,30.0,29.0,30.12,SSW,204,0.0,0.0,96,0.00,,,0.00,Wunderground v.1.15,2013-02-06 09:19:00,
2013-02-06 03:24:00,29.9,28.6,30.12,SSW,204,0.0,0.0,95,0.00,,,0.00,Wunderground v.1.15,2013-02-06 09:24:00,
2013-02-06 03:29:00,30.0,29.0,30.11,ESE,121,0.0,0.0,96,0.00,,,0.00,Wunderground v.1.15,2013-02-06 09:29:00,
2013-02-06 03:34:00,30.2,29.2,30.11,ESE,121,0.0,0.0,96,0.00,,,0.00,Wunderground v.1.15,2013-02-06 09:34:00,
2013-02-06 03:39:00,30.3,29.3,30.11,ESE,121,0.0,0.0,96,0.00,,,0.00,Wunderground v.1.15,2013-02-06 09:39:00,
2013-02-06 03:44:00,30.0,28.7,30.11,ESE,121,0.0,0.0,95,0.00,,,0.00,Wunderground v.1.15,2013-02-06 09:44:00,
2013-02-06 03:49:00,29.8,28.5,30.11,ESE,121,0.0,0.0,95,0.00,,,0.00,Wunderground v.1.15,2013-02-06 09:49:00,
2013-02-06 03:54:00,29.4,28.1,30.11,ESE,121,0.0,0.0,95,0.00,,,0.00,Wunderground v.1.15,2013-02-06 09:54:00,
2013-02-06 03:59:00,29.5,28.5,30.11,ESE,122,0.0,0.0,96,0.00,,,0.00,Wunderground v.1.15,2013-02-06 09:59:00,
2013-02-06 04:04:00,29.4,28.4,30.11,ESE,122,0.0,0.0,96,0.00,,,0.00,Wunderground v.1.15,2013-02-06 10:04:00,
2013-02-06 04:09:00,29.3,28.3,30.11,ESE,122,0.0,0.0,96,0.00,,,0.00,Wunderground v.1.15,2013-02-06 10:09:00,
2013-02-06 04:14:00,29.2,28.2,30.11,ESE,122,0.0,0.0,96,0.00,,,0.00,Wunderground v.1.15,2013-02-06 10:14:00,
2013-02-06 04:19:00,29.3,28.3,30.11,ESE,122,0.0,0.0,96,0.00,,,0.00,Wunderground v.1.15,2013-02-06 10:19:00,
2013-02-06 04:24:00,29.3,28.3,30.11,ESE,122,0.0,0.0,96,0.00,,,0.00,Wunderground v.1.15,2013-02-06 10:24:00,
2013-02-06 04:29:00,29.2,28.2,30.11,ESE,122,0.0,0.0,96,0.00,,,0.00,Wunderground v.1.15,2013-02-06 10:29:00,
2013-02-06 04:34:00,29.1,28.1,30.11,ESE,122,0.0,0.0,96,0.00,,,0.00,Wunderground v.1.15,2013-02-06 10:34:00,
2013-02-06 04:39:00,29.4,28.4,30.11,ESE,122,0.0,0.0,96,0.00,,,0.00,Wunderground v.1.15,2013-02-06 10:39:00,
2013-02-06 04:44:00,29.4,28.4,30.11,ESE,122,0.0,0.0,96,0.00,,,0.00,Wunderground v.1.15,2013-02-06 10:44:00,
2013-02-06 04:49:00,29.4,28.4,30.12,ESE,123,0.0,0.0,96,0.00,,,0.00,Wunderground v.1.15,2013-02-06 10:49:00,
2013-02-06 04:54:00,29.6,28.6,30.12,ESE,122,0.0,0.0,96,0.00,,,0.00,Wunderground v.1.15,2013-02-06 10:54:00,
2013-02-06 04:59:00,29.5,28.5,30.12,ESE,122,0.0,0.0,96,0.00,,,0.00,Wunderground v.1.15,2013-02-06 10:59:00,
2013-02-06 05:04:00,29.3,28.3,30.12,ESE,122,0.0,0.0,96,0.00,,,0.00,Wunderground v.1.15,2013-02-06 11:04:00,
2013-02-06 05:09:00,29.2,28.2,30.12,ESE,122,0.0,0.0,96,0.00,,,0.00,Wunderground v.1.15,2013-02-06 11:09:00,
2013-02-06 05:15:00,29.3,28.3,30.12,ESE,122,0.0,0.0,96,0.00,,,0.00,Wunderground v.1.15,2013-02-06 11:15:00,
2013-02-06 05:20:00,29.5,28.5,30.12,ESE,122,0.0,0.0,96,0.00,,,0.00,Wunderground v.1.15,2013-02-06 11:20:00,
2013-02-06 05:25:00,29.7,28.7,30.12,ESE,122,0.0,0.0,96,0.00,,,0.00,Wunderground v.1.15,2013-02-06 11:25:00,
2013-02-06 05:30:00,29.6,28.6,30.12,ESE,122,0.0,0.0,96,0.00,,,0.00,Wunderground v.1.15,2013-02-06 11:30:00,
2013-02-06 05:35:00,29.6,28.6,30.12,ESE,122,0.0,0.0,96,0.00,,,0.00,Wunderground v.1.15,2013-02-06 11:35:00,
2013-02-06 05:40:00,29.9,28.9,30.12,ESE,122,0.0,0.0,96,0.00,,,0.00,Wunderground v.1.15,2013-02-06 11:40:00,
2013-02-06 05:45:00,30.2,29.5,30.12,ESE,113,0.0,0.0,97,0.00,,,0.00,Wunderground v.1.15,2013-02-06 11:45:00,
2013-02-06 05:50:00,30.7,30.0,30.13,ESE,120,0.0,1.0,97,0.00,,,0.00,Wunderground v.1.15,2013-02-06 11:50:00,
2013-02-06 05:55:00,31.1,30.3,30.13,ESE,115,0.0,1.0,97,0.00,,,0.00,Wunderground v.1.15,2013-02-06 11:55:00,
2013-02-06 06:00:00,30.8,30.0,30.13,ESE,115,0.0,1.0,97,0.00,,,0.00,Wunderground v.1.15,2013-02-06 12:00:00,
2013-02-06 06:05:00,30.4,29.4,30.13,ESE,115,0.0,0.0,96,0.00,,,0.00,Wunderground v.1.15,2013-02-06 12:05:00,
2013-02-06 06:10:00,30.4,29.4,30.14,SSW,198,1.0,1.0,96,0.00,,,0.00,Wunderground v.1.15,2013-02-06 12:10:00,
2013-02-06 06:15:00,30.4,29.4,30.14,SSW,212,0.0,1.0,96,0.00,,,0.00,Wunderground v.1.15,2013-02-06 12:15:00,
2013-02-06 06:20:00,30.2,29.2,30.14,SSW,207,2.0,2.0,96,0.00,,,0.00,Wunderground v.1.15,2013-02-06 12:20:00,
2013-02-06 06:25:00,29.5,28.2,30.15,SW,214,2.0,3.0,95,0.00,,,0.00,Wunderground v.1.15,2013-02-06 12:25:00,
2013-02-06 06:30:00,29.2,28.2,30.15,SW,215,0.0,3.0,96,0.00,,,0.00,Wunderground v.1.15,2013-02-06 12:30:00,
2013-02-06 06:35:00,29.2,28.2,30.15,SW,215,0.0,1.0,96,0.00,,,0.00,Wunderground v.1.15,2013-02-06 12:35:00,
2013-02-06 06:40:00,29.3,28.3,30.15,SW,215,0.0,1.0,96,0.00,,,0.00,Wunderground v.1.15,2013-02-06 12:40:00,
2013-02-06 06:45:00,29.7,28.7,30.15,SSW,213,0.0,0.0,96,0.00,,,0.00,Wunderground v.1.15,2013-02-06 12:45:00,
2013-02-06 06:50:00,29.8,28.8,30.15,SW,214,0.0,0.0,96,0.00,,,0.00,Wunderground v.1.15,2013-02-06 12:50:00,
2013-02-06 06:55:00,29.4,28.4,30.15,SW,214,0.0,0.0,96,0.00,,,0.00,Wunderground v.1.15,2013-02-06 12:55:00,
2013-02-06 07:00:00,29.1,28.1,30.15,SW,214,0.0,0.0,96,0.00,,,0.00,Wunderground v.1.15,2013-02-06 13:00:00,
2013-02-06 07:05:00,29.0,28.0,30.16,SW,214,0.0,1.0,96,0.00,,,0.00,Wunderground v.1.15,2013-02-06 13:05:00,
2013-02-06 07:10:00,28.8,27.8,30.16,SW,214,0.0,1.0,96,0.00,,,0.00,Wunderground v.1.15,2013-02-06 13:10:00,
2013-02-06 07:15:00,28.7,27.7,30.16,SW,214,0.0,1.0,96,0.00,,,0.00,Wunderground v.1.15,2013-02-06 13:15:00,
2013-02-06 07:20:00,28.6,27.6,30.16,SW,214,0.0,0.0,96,0.00,,,0.00,Wunderground v.1.15,2013-02-06 13:20:00,
2013-02-06 07:25:00,28.8,27.8,30.16,SW,214,0.0,0.0,96,0.00,,,0.00,Wunderground v.1.15,2013-02-06 13:25:00,
2013-02-06 07:30:00,28.8,27.8,30.17,SW,214,0.0,0.0,96,0.00,,,0.00,Wunderground v.1.15,2013-02-06 13:30:00,
2013-02-06 07:35:00,28.6,27.6,30.16,SW,214,0.0,0.0,96,0.00,,,0.00,Wunderground v.1.15,2013-02-06 13:35:00,
2013-02-06 07:40:00,28.8,27.8,30.16,South,183,0.0,0.0,96,0.00,,,0.00,Wunderground v.1.15,2013-02-06 13:40:00,
2013-02-06 07:45:00,29.2,28.2,30.16,South,183,1.0,1.0,96,0.00,,,0.00,Wunderground v.1.15,2013-02-06 13:45:00,
2013-02-06 07:50:00,29.3,28.3,30.16,South,183,0.0,1.0,96,0.00,,,0.00,Wunderground v.1.15,2013-02-06 13:50:00,
2013-02-06 07:55:00,29.4,28.4,30.16,South,183,0.0,0.0,96,0.00,,,0.00,Wunderground v.1.15,2013-02-06 13:55:00,
2013-02-06 08:00:00,29.8,28.8,30.16,South,183,0.0,0.0,96,0.00,,,0.00,Wunderground v.1.15,2013-02-06 14:00:00,
2013-02-06 08:05:00,30.5,29.5,30.16,South,183,0.0,0.0,96,0.00,,,0.00,Wunderground v.1.15,2013-02-06 14:05:00,
2013-02-06 08:10:00,31.8,31.0,30.16,South,184,0.0,0.0,97,0.00,,,0.00,Wunderground v.1.15,2013-02-06 14:10:00,
2013-02-06 08:15:00,32.4,31.6,30.16,South,183,0.0,1.0,97,0.00,,,0.00,Wunderground v.1.15,2013-02-06 14:15:00,
2013-02-06 08:20:00,32.4,31.4,30.16,South,184,0.0,0.0,96,0.00,,,0.00,Wunderground v.1.15,2013-02-06 14:20:00,
2013-02-06 08:25:00,33.0,32.0,30.15,East,94,1.0,2.0,96,0.00,,,0.00,Wunderground v.1.15,2013-02-06 14:25:00,
2013-02-06 08:30:00,33.0,32.0,30.15,East,96,2.0,3.0,96,0.00,,,0.00,Wunderground v.1.15,2013-02-06 14:30:00,
2013-02-06 08:35:00,34.0,33.0,30.15,East,87,2.0,3.0,96,0.00,,,0.00,Wunderground v.1.15,2013-02-06 14:35:00,
2013-02-06 08:40:00,35.2,34.2,30.15,NE,40,0.0,2.0,96,0.00,,,0.00,Wunderground v.1.15,2013-02-06 14:40:00,
2013-02-06 08:45:00,35.7,34.1,30.16,NE,41,0.0,2.0,94,0.00,,,0.00,Wunderground v.1.15,2013-02-06 14:45:00,
2013-02-06 08:50:00,36.1,34.3,30.16,NNE,25,0.0,0.0,93,0.00,,,0.00,Wunderground v.1.15,2013-02-06 14:50:00,
2013-02-06 08:55:00,37.0,35.2,30.15,East,82,1.0,2.0,93,0.00,,,0.00,Wunderground v.1.15,2013-02-06 14:55:00,
2013-02-06 09:00:00,38.0,35.6,30.15,East,97,1.0,1.0,91,0.00,,,0.00,Wunderground v.1.15,2013-02-06 15:00:00,
2013-02-06 09:05:00,38.8,36.1,30.15,ESE,103,0.0,2.0,90,0.00,,,0.00,Wunderground v.1.15,2013-02-06 15:05:00,
2013-02-06 09:10:00,39.4,36.1,30.15,ESE,105,0.0,0.0,88,0.00,,,0.00,Wunderground v.1.15,2013-02-06 15:10:00,
2013-02-06 09:15:00,40.4,36.5,30.14,East,101,0.0,0.0,86,0.00,,,0.00,Wunderground v.1.15,2013-02-06 15:15:00,
2013-02-06 09:20:00,41.0,36.2,30.14,ENE,59,2.0,2.0,83,0.00,,,0.00,Wunderground v.1.15,2013-02-06 15:20:00,
2013-02-06 09:25:00,42.0,36.9,30.14,ESE,113,2.0,4.0,82,0.00,,,0.00,Wunderground v.1.15,2013-02-06 15:25:00,
2013-02-06 09:30:00,42.6,36.9,30.14,East,96,3.0,5.0,80,0.00,,,0.00,Wunderground v.1.15,2013-02-06 15:30:00,
2013-02-06 09:35:00,43.1,36.7,30.14,East,90,3.0,6.0,78,0.00,,,0.00,Wunderground v.1.15,2013-02-06 15:35:00,
2013-02-06 09:40:00,43.5,37.1,30.14,ENE,66,2.0,3.0,78,0.00,,,0.00,Wunderground v.1.15,2013-02-06 15:40:00,
2013-02-06 09:45:00,44.1,37.3,30.14,East,89,1.0,3.0,77,0.00,,,0.00,Wunderground v.1.15,2013-02-06 15:45:00,
2013-02-06 09:50:00,44.7,37.3,30.14,East,95,1.0,1.0,75,0.00,,,0.00,Wunderground v.1.15,2013-02-06 15:50:00,
2013-02-06 09:55:00,45.1,38.3,30.14,NE,34,0.0,1.0,77,0.00,,,0.00,Wunderground v.1.15,2013-02-06 15:55:00,
2013-02-06 10:00:00,45.4,38.6,30.14,West,259,1.0,1.0,77,0.00,,,0.00,Wunderground v.1.15,2013-02-06 16:00:00,
2013-02-06 10:05:00,45.9,38.8,30.14,WSW,253,0.0,1.0,76,0.00,,,0.00,Wunderground v.1.15,2013-02-06 16:05:00,
2013-02-06 10:10:00,46.3,39.1,30.14,WSW,255,0.0,0.0,76,0.00,,,0.00,Wunderground v.1.15,2013-02-06 16:10:00,
2013-02-06 10:15:00,46.7,38.1,30.14,East,91,0.0,1.0,72,0.00,,,0.00,Wunderground v.1.15,2013-02-06 16:15:00,
2013-02-06 10:20:00,47.3,38.7,30.14,ENE,76,0.0,1.0,72,0.00,,,0.00,Wunderground v.1.15,2013-02-06 16:20:00,
2013-02-06 10:25:00,47.9,37.8,30.14,ENE,58,1.0,2.0,68,0.00,,,0.00,Wunderground v.1.15,2013-02-06 16:25:00,
2013-02-06 10:30:00,48.7,37.8,30.14,ENE,58,1.0,1.0,66,0.00,,,0.00,Wunderground v.1.15,2013-02-06 16:30:00,
2013-02-06 10:35:00,49.1,38.2,30.13,NNE,15,0.0,2.0,66,0.00,,,0.00,Wunderground v.1.15,2013-02-06 16:35:00,
2013-02-06 10:41:00,49.7,37.6,30.13,East,79,0.0,1.0,63,0.00,,,0.00,Wunderground v.1.15,2013-02-06 16:41:00,
2013-02-06 10:46:00,50.5,38.4,30.13,NNW,334,1.0,2.0,63,0.00,,,0.00,Wunderground v.1.15,2013-02-06 16:46:00,
2013-02-06 10:51:00,51.3,39.1,30.13,NNW,334,0.0,1.0,63,0.00,,,0.00,Wunderground v.1.15,2013-02-06 16:51:00,
2013-02-06 10:56:00,52.4,37.6,30.13,ESE,102,3.0,4.0,57,0.00,,,0.00,Wunderground v.1.15,2013-02-06 16:56:00,
2013-02-06 11:01:00,53.7,37.9,30.12,East,88,3.0,5.0,55,0.00,,,0.00,Wunderground v.1.15,2013-02-06 17:01:00,
2013-02-06 11:06:00,54.9,37.6,30.12,East,96,1.0,6.0,52,0.00,,,0.00,Wunderground v.1.15,2013-02-06 17:06:00,
2013-02-06 11:11:00,55.4,37.1,30.12,ENE,65,2.0,3.0,50,0.00,,,0.00,Wunderground v.1.15,2013-02-06 17:11:00,
2013-02-06 11:16:00,56.0,37.1,30.12,NNE,30,1.0,8.0,49,0.00,,,0.00,Wunderground v.1.15,2013-02-06 17:16:00,
2013-02-06 11:21:00,56.7,37.7,30.11,NE,42,1.0,2.0,49,0.00,,,0.00,Wunderground v.1.15,2013-02-06 17:21:00,
2013-02-06 11:26:00,57.2,37.7,30.11,NE,42,2.0,5.0,48,0.00,,,0.00,Wunderground v.1.15,2013-02-06 17:26:00,
2013-02-06 11:31:00,57.2,37.1,30.11,ESE,107,5.0,5.0,47,0.00,,,0.00,Wunderground v.1.15,2013-02-06 17:31:00,
2013-02-06 11:36:00,57.1,37.6,30.10,SE,124,2.0,5.0,48,0.00,,,0.00,Wunderground v.1.15,2013-02-06 17:36:00,
2013-02-06 11:41:00,57.7,38.1,30.10,NE,41,4.0,5.0,48,0.00,,,0.00,Wunderground v.1.15,2013-02-06 17:41:00,
2013-02-06 11:46:00,58.2,38.6,30.09,ENE,65,4.0,6.0,48,0.00,,,0.00,Wunderground v.1.15,2013-02-06 17:46:00,
2013-02-06 11:51:00,58.2,38.1,30.09,ENE,72,2.0,4.0,47,0.00,,,0.00,Wunderground v.1.15,2013-02-06 17:51:00,
2013-02-06 11:56:00,58.5,38.3,30.09,NNE,23,4.0,6.0,47,0.00,,,0.00,Wunderground v.1.15,2013-02-06 17:56:00,
2013-02-06 12:01:00,59.1,38.3,30.08,NNE,25,3.0,5.0,46,0.00,,,0.00,Wunderground v.1.15,2013-02-06 18:01:00,
2013-02-06 12:06:00,59.5,38.7,30.08,NE,49,3.0,6.0,46,0.00,,,0.00,Wunderground v.1.15,2013-02-06 18:06:00,
2013-02-06 12:11:00,59.1,38.3,30.08,East,83,4.0,5.0,46,0.00,,,0.00,Wunderground v.1.15,2013-02-06 18:11:00,
2013-02-06 12:16:00,58.7,38.5,30.07,NE,49,4.0,7.0,47,0.00,,,0.00,Wunderground v.1.15,2013-02-06 18:16:00,
2013-02-06 12:21:00,58.5,38.9,30.07,ESE,114,2.0,3.0,48,0.00,,,0.00,Wunderground v.1.15,2013-02-06 18:21:00,
2013-02-06 12:26:00,58.8,38.6,30.07,East,79,3.0,4.0,47,0.00,,,0.00,Wunderground v.1.15,2013-02-06 18:26:00,
2013-02-06 12:31:00,59.0,38.8,30.06,ENE,64,3.0,4.0,47,0.00,,,0.00,Wunderground v.1.15,2013-02-06 18:31:00,
2013-02-06 12:36:00,59.6,39.3,30.06,East,96,1.0,5.0,47,0.00,,,0.00,Wunderground v.1.15,2013-02-06 18:36:00,
2013-02-06 12:41:00,60.0,38.0,30.06,East,86,2.0,5.0,44,0.00,,,0.00,Wunderground v.1.15,2013-02-06 18:41:00,
2013-02-06 12:46:00,60.2,38.8,30.06,East,90,2.0,5.0,45,0.00,,,0.00,Wunderground v.1.15,2013-02-06 18:46:00,
2013-02-06 12:51:00,60.3,38.9,30.05,ESE,121,5.0,8.0,45,0.00,,,0.00,Wunderground v.1.15,2013-02-06 18:51:00,
2013-02-06 12:56:00,59.8,39.0,30.05,East,79,3.0,8.0,46,0.00,,,0.00,Wunderground v.1.15,2013-02-06 18:56:00,
2013-02-06 13:01:00,60.1,39.2,30.05,ENE,73,4.0,5.0,46,0.00,,,0.00,Wunderground v.1.15,2013-02-06 19:01:00,
2013-02-06 13:06:00,60.2,39.3,30.04,ENE,63,6.0,9.0,46,0.00,,,0.00,Wunderground v.1.15,2013-02-06 19:06:00,
2013-02-06 13:11:00,60.2,38.8,30.04,ENE,78,3.0,8.0,45,0.00,,,0.00,Wunderground v.1.15,2013-02-06 19:11:00,
2013-02-06 13:16:00,60.1,38.7,30.03,NE,56,3.0,9.0,45,0.00,,,0.00,Wunderground v.1.15,2013-02-06 19:16:00,
2013-02-06 13:21:00,60.4,39.5,30.03,ENE,76,4.0,8.0,46,0.00,,,0.00,Wunderground v.1.15,2013-02-06 19:21:00,
2013-02-06 13:26:00,60.6,39.7,30.03,NE,42,3.0,10.0,46,0.00,,,0.00,Wunderground v.1.15,2013-02-06 19:26:00,
2013-02-06 13:31:00,60.9,39.4,30.03,NNE,27,3.0,6.0,45,0.00,,,0.00,Wunderground v.1.15,2013-02-06 19:31:00,
2013-02-06 13:36:00,60.5,39.0,30.02,East,82,5.0,8.0,45,0.00,,,0.00,Wunderground v.1.15,2013-02-06 19:36:00,
2013-02-06 13:41:00,60.2,39.3,30.02,ENE,69,4.0,5.0,46,0.00,,,0.00,Wunderground v.1.15,2013-02-06 19:41:00,
2013-02-06 13:46:00,60.0,39.7,30.02,ENE,66,3.0,11.0,47,0.00,,,0.00,Wunderground v.1.15,2013-02-06 19:46:00,
2013-02-06 13:51:00,59.9,39.6,30.01,ENE,65,6.0,9.0,47,0.00,,,0.00,Wunderground v.1.15,2013-02-06 19:51:00,
2013-02-06 13:56:00,60.0,40.2,30.01,NE,40,1.0,9.0,48,0.00,,,0.00,Wunderground v.1.15,2013-02-06 19:56:00,
2013-02-06 14:01:00,60.3,40.5,30.01,East,86,4.0,7.0,48,0.00,,,0.00,Wunderground v.1.15,2013-02-06 20:01:00,
2013-02-06 14:06:00,60.8,41.0,30.01,ENE,65,3.0,7.0,48,0.00,,,0.00,Wunderground v.1.15,2013-02-06 20:06:00,
2013-02-06 14:11:00,61.1,40.7,30.01,ESE,105,3.0,5.0,47,0.00,,,0.00,Wunderground v.1.15,2013-02-06 20:11:00,
2013-02-06 14:16:00,60.6,40.2,30.01,ESE,107,7.0,11.0,47,0.00,,,0.00,Wunderground v.1.15,2013-02-06 20:16:00,
2013-02-06 14:21:00,60.4,40.1,30.01,NE,51,10.0,10.0,47,0.00,,,0.00,Wunderground v.1.15,2013-02-06 20:21:00,
2013-02-06 14:26:00,60.3,40.0,30.00,NE,53,7.0,10.0,47,0.00,,,0.00,Wunderground v.1.15,2013-02-06 20:26:00,
2013-02-06 14:31:00,60.8,40.4,30.00,ENE,63,6.0,8.0,47,0.00,,,0.00,Wunderground v.1.15,2013-02-06 20:31:00,
2013-02-06 14:36:00,61.3,40.9,30.00,NE,52,4.0,8.0,47,0.00,,,0.00,Wunderground v.1.15,2013-02-06 20:36:00,
2013-02-06 14:41:00,62.1,41.6,30.00,ENE,69,4.0,8.0,47,0.00,,,0.00,Wunderground v.1.15,2013-02-06 20:41:00,
2013-02-06 14:46:00,62.6,40.4,29.99,ENE,73,8.0,11.0,44,0.00,,,0.00,Wunderground v.1.15,2013-02-06 20:46:00,
2013-02-06 14:51:00,62.3,41.2,30.00,ENE,71,6.0,7.0,46,0.00,,,0.00,Wunderground v.1.15,2013-02-06 20:51:00,
2013-02-06 14:56:00,61.8,40.2,29.99,NE,51,8.0,11.0,45,0.00,,,0.00,Wunderground v.1.15,2013-02-06 20:56:00,
2013-02-06 15:01:00,61.1,40.1,29.99,ENE,68,9.0,9.0,46,0.00,,,0.00,Wunderground v.1.15,2013-02-06 21:01:00,
2013-02-06 15:06:00,60.5,40.7,29.99,NE,39,3.0,15.0,48,0.00,,,0.00,Wunderground v.1.15,2013-02-06 21:06:00,
2013-02-06 15:11:00,60.0,40.2,29.99,ENE,68,4.0,8.0,48,0.00,,,0.00,Wunderground v.1.15,2013-02-06 21:11:00,
2013-02-06 15:16:00,59.9,40.7,29.99,ENE,75,5.0,8.0,49,0.00,,,0.00,Wunderground v.1.15,2013-02-06 21:16:00,
2013-02-06 15:21:00,59.9,40.7,29.99,NE,40,3.0,8.0,49,0.00,,,0.00,Wunderground v.1.15,2013-02-06 21:21:00,
2013-02-06 15:26:00,59.9,40.7,29.98,NE,47,6.0,8.0,49,0.00,,,0.00,Wunderground v.1.15,2013-02-06 21:26:00,
2013-02-06 15:31:00,60.0,40.8,29.98,East,80,3.0,6.0,49,0.00,,,0.00,Wunderground v.1.15,2013-02-06 21:31:00,
2013-02-06 15:36:00,60.0,40.8,29.98,NE,35,7.0,8.0,49,0.00,,,0.00,Wunderground v.1.15,2013-02-06 21:36:00,
2013-02-06 15:41:00,60.1,41.4,29.98,NE,42,4.0,7.0,50,0.00,,,0.00,Wunderground v.1.15,2013-02-06 21:41:00,
2013-02-06 15:46:00,60.2,41.0,29.98,NE,39,3.0,7.0,49,0.00,,,0.00,Wunderground v.1.15,2013-02-06 21:46:00,
2013-02-06 15:51:00,60.3,41.6,29.98,NE,41,3.0,4.0,50,0.00,,,0.00,Wunderground v.1.15,2013-02-06 21:51:00,
2013-02-06 15:56:00,60.4,41.1,29.98,East,83,1.0,5.0,49,0.00,,,0.00,Wunderground v.1.15,2013-02-06 21:56:00,
2013-02-06 16:01:00,60.4,41.7,29.98,ENE,58,2.0,2.0,50,0.00,,,0.00,Wunderground v.1.15,2013-02-06 22:01:00,
2013-02-06 16:06:00,60.3,41.6,29.98,ENE,63,1.0,4.0,50,0.00,,,0.00,Wunderground v.1.15,2013-02-06 22:06:00,
2013-02-06 16:11:00,60.4,41.7,29.98,ESE,110,2.0,2.0,50,0.00,,,0.00,Wunderground v.1.15,2013-02-06 22:11:00,
2013-02-06 16:16:00,60.5,42.3,29.98,NNE,21,1.0,4.0,51,0.00,,,0.00,Wunderground v.1.15,2013-02-06 22:16:00,
2013-02-06 16:21:00,60.8,42.5,29.98,SE,124,0.0,2.0,51,0.00,,,0.00,Wunderground v.1.15,2013-02-06 22:21:00,
2013-02-06 16:26:00,61.1,42.3,29.97,NNE,18,0.0,2.0,50,0.00,,,0.00,Wunderground v.1.15,2013-02-06 22:26:00,
2013-02-06 16:31:00,61.6,42.8,29.97,West,273,1.0,1.0,50,0.00,,,0.00,Wunderground v.1.15,2013-02-06 22:31:00,
2013-02-06 16:36:00,62.1,42.2,29.97,WSW,248,2.0,4.0,48,0.00,,,0.00,Wunderground v.1.15,2013-02-06 22:36:00,
2013-02-06 16:41:00,63.2,42.1,29.97,SW,236,3.0,5.0,46,0.00,,,0.00,Wunderground v.1.15,2013-02-06 22:41:00,
2013-02-06 16:46:00,63.6,41.3,29.97,ENE,76,1.0,7.0,44,0.00,,,0.00,Wunderground v.1.15,2013-02-06 22:46:00,
2013-02-06 16:51:00,63.8,41.5,29.97,ESE,108,0.0,2.0,44,0.00,,,0.00,Wunderground v.1.15,2013-02-06 22:51:00,
2013-02-06 16:56:00,64.0,41.0,29.97,ESE,112,3.0,7.0,43,0.00,,,0.00,Wunderground v.1.15,2013-02-06 22:56:00,
2013-02-06 17:01:00,64.0,41.0,29.97,SSW,205,3.0,4.0,43,0.00,,,0.00,Wunderground v.1.15,2013-02-06 23:01:00,
2013-02-06 17:06:00,64.1,41.1,29.97,West,260,3.0,4.0,43,0.00,,,0.00,Wunderground v.1.15,2013-02-06 23:06:00,
2013-02-06 17:11:00,63.8,40.3,29.97,NE,49,2.0,3.0,42,0.00,,,0.00,Wunderground v.1.15,2013-02-06 23:11:00,
2013-02-06 17:16:00,63.6,40.1,29.98,East,97,2.0,5.0,42,0.00,,,0.00,Wunderground v.1.15,2013-02-06 23:16:00,
2013-02-06 17:21:00,63.0,39.5,29.98,SW,219,3.0,9.0,42,0.00,,,0.00,Wunderground v.1.15,2013-02-06 23:21:00,
2013-02-06 17:26:00,62.3,38.9,29.98,SW,236,1.0,9.0,42,0.00,,,0.00,Wunderground v.1.15,2013-02-06 23:26:00,
2013-02-06 17:31:00,61.7,38.4,29.98,East,98,0.0,2.0,42,0.00,,,0.00,Wunderground v.1.15,2013-02-06 23:31:00,
2013-02-06 17:36:00,61.2,38.5,29.98,East,97,2.0,5.0,43,0.00,,,0.00,Wunderground v.1.15,2013-02-06 23:36:00,
2013-02-06 17:41:00,60.8,38.1,29.98,ESE,120,2.0,3.0,43,0.00,,,0.00,Wunderground v.1.15,2013-02-06 23:41:00,
2013-02-06 17:46:00,60.4,37.8,29.98,SW,221,1.0,4.0,43,0.00,,,0.00,Wunderground v.1.15,2013-02-06 23:46:00,
2013-02-06 17:51:00,59.9,37.3,29.98,East,83,2.0,3.0,43,0.00,,,0.00,Wunderground v.1.15,2013-02-06 23:51:00,
2013-02-06 17:56:00,59.4,37.5,29.99,SE,142,1.0,3.0,44,0.00,,,0.00,Wunderground v.1.15,2013-02-06 23:56:00,
2013-02-06 18:01:00,59.0,37.7,29.99,SW,224,2.0,2.0,45,0.00,,,0.00,Wunderground v.1.15,2013-02-07 00:01:00,
2013-02-06 20:00:00,54.9,37.6,30.00,ESE,107,1.0,3.0,52,0.00,,,0.00,Wunderground v.1.15,2013-02-07 02:00:00,
2013-02-06 20:05:00,54.9,37.6,29.99,ENE,70,3.0,3.0,52,0.00,,,0.00,Wunderground v.1.15,2013-02-07 02:05:00,
2013-02-06 20:10:00,54.9,37.6,29.99,ESE,104,2.0,4.0,52,0.00,,,0.00,Wunderground v.1.15,2013-02-07 02:10:00,
2013-02-06 20:15:00,54.8,38.0,29.99,East,84,2.0,4.0,53,0.00,,,0.00,Wunderground v.1.15,2013-02-07 02:15:00,
2013-02-06 20:20:00,54.7,37.4,29.99,ENE,61,0.0,2.0,52,0.00,,,0.00,Wunderground v.1.15,2013-02-07 02:20:00,
2013-02-06 20:25:00,54.7,37.9,30.00,East,91,4.0,6.0,53,0.00,,,0.00,Wunderground v.1.15,2013-02-07 02:25:00,
2013-02-06 20:30:00,54.6,37.8,30.00,East,98,1.0,3.0,53,0.00,,,0.00,Wunderground v.1.15,2013-02-07 02:30:00,
2013-02-06 20:35:00,54.3,37.5,30.00,ESE,104,0.0,3.0,53,0.00,,,0.00,Wunderground v.1.15,2013-02-07 02:35:00,
2013-02-06 20:40:00,53.9,37.6,30.00,ESE,105,0.0,0.0,54,0.00,,,0.00,Wunderground v.1.15,2013-02-07 02:40:00,
2013-02-06 20:45:00,53.4,37.2,30.00,ESE,105,0.0,0.0,54,0.00,,,0.00,Wunderground v.1.15,2013-02-07 02:45:00,
2013-02-06 20:50:00,53.0,37.7,30.00,ESE,104,0.0,0.0,56,0.00,,,0.00,Wunderground v.1.15,2013-02-07 02:50:00,
2013-02-06 20:55:00,52.7,37.4,30.00,ESE,105,0.0,0.0,56,0.00,,,0.00,Wunderground v.1.15,2013-02-07 02:55:00,
2013-02-06 21:00:00,52.5,37.7,30.00,ESE,105,0.0,0.0,57,0.00,,,0.00,Wunderground v.1.15,2013-02-07 03:00:00,
2013-02-06 21:05:00,52.4,37.6,30.00,ESE,104,0.0,0.0,57,0.00,,,0.00,Wunderground v.1.15,2013-02-07 03:05:00,
2013-02-06 21:10:00,52.3,38.0,29.99,ESE,105,1.0,1.0,58,0.00,,,0.00,Wunderground v.1.15,2013-02-07 03:10:00,
2013-02-06 21:15:00,52.0,38.1,29.99,ESE,111,0.0,2.0,59,0.00,,,0.00,Wunderground v.1.15,2013-02-07 03:15:00,
2013-02-06 21:20:00,51.4,38.0,29.99,ESE,110,0.0,1.0,60,0.00,,,0.00,Wunderground v.1.15,2013-02-07 03:20:00,
2013-02-06 21:25:00,51.1,38.1,29.99,ESE,110,0.0,1.0,61,0.00,,,0.00,Wunderground v.1.15,2013-02-07 03:25:00,
2013-02-06 21:30:00,50.8,38.2,29.99,ESE,108,0.0,0.0,62,0.00,,,0.00,Wunderground v.1.15,2013-02-07 03:30:00,
2013-02-06 21:35:00,50.5,38.4,29.99,ESE,105,0.0,1.0,63,0.00,,,0.00,Wunderground v.1.15,2013-02-07 03:35:00,
2013-02-06 21:40:00,50.0,38.3,29.99,ESE,105,0.0,0.0,64,0.00,,,0.00,Wunderground v.1.15,2013-02-07 03:40:00,
2013-02-06 21:45:00,49.6,38.3,29.99,NNE,27,2.0,2.0,65,0.00,,,0.00,Wunderground v.1.15,2013-02-07 03:45:00,
2013-02-06 21:50:00,49.4,38.9,29.99,ENE,73,1.0,1.0,67,0.00,,,0.00,Wunderground v.1.15,2013-02-07 03:50:00,
2013-02-06 21:55:00,49.2,39.1,29.99,East,88,1.0,2.0,68,0.00,,,0.00,Wunderground v.1.15,2013-02-07 03:55:00,
2013-02-06 22:01:00,49.2,39.1,30.00,ESE,105,1.0,1.0,68,0.00,,,0.00,Wunderground v.1.15,2013-02-07 04:01:00,
2013-02-06 22:06:00,49.0,38.9,30.00,East,101,0.0,2.0,68,0.00,,,0.00,Wunderground v.1.15,2013-02-07 04:06:00,
2013-02-06 22:11:00,48.7,39.4,30.00,East,101,0.0,1.0,70,0.00,,,0.00,Wunderground v.1.15,2013-02-07 04:11:00,
2013-02-06 22:16:00,48.3,39.0,30.00,SE,132,0.0,1.0,70,0.00,,,0.00,Wunderground v.1.15,2013-02-07 04:16:00,
2013-02-06 22:21:00,48.1,39.1,29.99,ESE,107,1.0,1.0,71,0.00,,,0.00,Wunderground v.1.15,2013-02-07 04:21:00,
2013-02-06 22:26:00,47.6,39.0,29.99,East,94,1.0,2.0,72,0.00,,,0.00,Wunderground v.1.15,2013-02-07 04:26:00,
2013-02-06 22:31:00,46.8,38.9,29.99,ESE,103,1.0,1.0,74,0.00,,,0.00,Wunderground v.1.15,2013-02-07 04:31:00,
2013-02-06 22:36:00,46.5,39.0,29.99,ESE,103,0.0,1.0,75,0.00,,,0.00,Wunderground v.1.15,2013-02-07 04:36:00,
2013-02-06 22:41:00,46.0,38.9,29.99,ESE,103,0.0,0.0,76,0.00,,,0.00,Wunderground v.1.15,2013-02-07 04:41:00,
2013-02-06 22:46:00,45.9,39.1,29.99,ESE,107,0.0,1.0,77,0.00,,,0.00,Wunderground v.1.15,2013-02-07 04:46:00,
2013-02-06 22:51:00,45.7,38.9,29.99,ESE,105,0.0,0.0,77,0.00,,,0.00,Wunderground v.1.15,2013-02-07 04:51:00,
2013-02-06 22:56:00,45.3,38.8,29.99,ESE,105,1.0,1.0,78,0.00,,,0.00,Wunderground v.1.15,2013-02-07 04:56:00,
2013-02-06 23:00:00,45.0,38.9,29.99,ESE,105,0.0,1.0,79,0.00,,,0.00,Wunderground v.1.15,2013-02-07 05:00:00,
2013-02-06 23:05:00,44.5,38.4,29.99,ESE,105,0.0,0.0,79,0.00,,,0.00,Wunderground v.1.15,2013-02-07 05:05:00,
2013-02-06 23:10:00,44.5,39.0,29.99,ESE,104,0.0,0.0,81,0.00,,,0.00,Wunderground v.1.15,2013-02-07 05:10:00,
2013-02-06 23:15:00,44.1,38.3,29.98,East,101,2.0,3.0,80,0.00,,,0.00,Wunderground v.1.15,2013-02-07 05:15:00,
2013-02-06 23:20:00,43.8,38.7,29.99,West,280,0.0,1.0,82,0.00,,,0.00,Wunderground v.1.15,2013-02-07 05:20:00,
2013-02-06 23:25:00,43.5,38.4,29.99,West,278,0.0,1.0,82,0.00,,,0.00,Wunderground v.1.15,2013-02-07 05:25:00,
2013-02-06 23:30:00,43.4,38.6,29.99,ESE,113,1.0,2.0,83,0.00,,,0.00,Wunderground v.1.15,2013-02-07 05:30:00,
2013-02-06 23:35:00,43.5,38.4,29.99,SW,231,0.0,2.0,82,0.00,,,0.00,Wunderground v.1.15,2013-02-07 05:35:00,
2013-02-06 23:40:00,43.0,38.2,29.98,SW,232,0.0,0.0,83,0.00,,,0.00,Wunderground v.1.15,2013-02-07 05:40:00,
2013-02-06 23:45:00,42.7,38.2,29.98,SSE,156,0.0,0.0,84,0.00,,,0.00,Wunderground v.1.15,2013-02-07 05:45:00,
2013-02-06 23:50:00,42.5,38.0,29.99,SE,124,0.0,0.0,84,0.00,,,0.00,Wunderground v.1.15,2013-02-07 05:50:00,
2013-02-06 23:55:00,42.1,37.6,29.99,SE,127,0.0,0.0,84,0.00,,,0.00,Wunderground v.1.15,2013-02-07 05:55:00,